createdAt,value
2023-07-17T00:00:13.933Z,101464.41
2023-07-17T00:02:41.452Z,101467.91
2023-07-17T00:05:08.453Z,101477.69
2023-07-17T00:07:35.114Z,101481.56
2023-07-17T00:10:01.663Z,101474.94
2023-07-17T00:12:28.320Z,101471.75
2023-07-17T00:14:54.844Z,101470.16
2023-07-17T00:17:21.394Z,101477.94
2023-07-17T00:19:57.771Z,101475.16
2023-07-17T00:22:25.373Z,101470.47
2023-07-17T00:24:53.218Z,101466.97
2023-07-17T00:27:20.390Z,101465.41
2023-07-17T00:29:47.704Z,101470.19
2023-07-17T00:32:14.923Z,101470.19
2023-07-17T00:34:41.642Z,101466.28
2023-07-17T00:37:08.949Z,101468.28
2023-07-17T00:39:35.621Z,101471.06
2023-07-17T00:42:02.947Z,101461.25
2023-07-17T00:44:29.516Z,101468.63
2023-07-17T00:46:56.648Z,101472.13
2023-07-17T00:49:27.089Z,101463.84
2023-07-17T00:51:54.624Z,101468.97
2023-07-17T00:54:21.333Z,101468.91
2023-07-17T00:56:48.256Z,101471.63
2023-07-17T00:59:15.561Z,101471.53
2023-07-17T01:01:43.135Z,101470.34
2023-07-17T01:04:09.938Z,101471.84
2023-07-17T01:06:42.819Z,101466.34
2023-07-17T01:09:11.823Z,101472.16
2023-07-17T01:11:38.424Z,101472.13
2023-07-17T01:14:05.134Z,101479.50
2023-07-17T01:16:31.794Z,101474.75
2023-07-17T01:18:58.320Z,101485.22
2023-07-17T01:21:27.406Z,101485.91
2023-07-17T01:23:55.616Z,101496.41
2023-07-17T01:26:22.217Z,101486.97
2023-07-17T01:28:48.774Z,101483.38
2023-07-17T01:31:15.630Z,101486.88
2023-07-17T01:33:42.412Z,101482.47
2023-07-17T01:36:08.976Z,101500.44
2023-07-17T01:38:35.514Z,101496.41
2023-07-17T01:41:02.246Z,101495.94
2023-07-17T01:43:28.781Z,101498.28
2023-07-17T01:45:55.364Z,101498.91
2023-07-17T01:48:21.905Z,101494.09
2023-07-17T01:50:48.775Z,101498.38
2023-07-17T01:53:20.013Z,101494.84
2023-07-17T01:55:47.344Z,101494.84
2023-07-17T01:58:14.057Z,101498.75
2023-07-17T02:00:40.634Z,101490.13
2023-07-17T02:03:07.301Z,101497.53
2023-07-17T02:05:33.853Z,101499.03
2023-07-17T02:08:00.360Z,101495.41
2023-07-17T02:10:26.903Z,101496.09
2023-07-17T02:12:53.379Z,101503.84
2023-07-17T02:15:19.868Z,101508.13
2023-07-17T02:17:46.370Z,101511.19
2023-07-17T02:20:14.513Z,101505.22
2023-07-17T02:22:42.260Z,101511.41
2023-07-17T02:25:09.252Z,101507.09
2023-07-17T02:27:36.219Z,101509.88
2023-07-17T02:30:04.163Z,101506.72
2023-07-17T02:32:31.445Z,101510.13
2023-07-17T02:34:58.046Z,101510.41
2023-07-17T02:37:25.180Z,101507.22
2023-07-17T02:39:52.407Z,101509.06
2023-07-17T02:42:19.229Z,101504.31
2023-07-17T02:44:47.433Z,101518.78
2023-07-17T02:47:14.289Z,101518.72
2023-07-17T02:49:41.003Z,101516.75
2023-07-17T02:52:08.498Z,101517.91
2023-07-17T02:54:38.262Z,101520.94
2023-07-17T02:57:06.037Z,101522.00
2023-07-17T02:59:33.249Z,101516.47
2023-07-17T03:01:59.862Z,101530.56
2023-07-17T03:04:26.532Z,101520.75
2023-07-17T03:06:53.214Z,101527.63
2023-07-17T03:09:19.980Z,101532.69
2023-07-17T03:11:46.493Z,101529.16
2023-07-17T03:14:13.001Z,101531.53
2023-07-17T03:16:39.638Z,101529.16
2023-07-17T03:19:06.288Z,101529.94
2023-07-17T03:21:35.366Z,101523.28
2023-07-17T03:24:03.806Z,101528.63
2023-07-17T03:26:30.373Z,101524.53
2023-07-17T03:28:56.950Z,101532.69
2023-07-17T03:31:23.624Z,101535.75
2023-07-17T03:33:50.450Z,101544.31
2023-07-17T03:36:17.161Z,101540.34
2023-07-17T03:38:43.736Z,101533.22
2023-07-17T03:41:10.372Z,101534.47
2023-07-17T03:43:37.144Z,101526.19
2023-07-17T03:46:03.648Z,101531.72
2023-07-17T03:48:30.134Z,101533.31
2023-07-17T03:50:57.123Z,101545.03
2023-07-17T03:53:25.014Z,101545.81
2023-07-17T03:55:51.556Z,101546.88
2023-07-17T03:58:18.592Z,101541.00
2023-07-17T04:00:45.128Z,101547.59
2023-07-17T04:03:11.787Z,101545.75
2023-07-17T04:05:38.365Z,101543.72
2023-07-17T04:08:04.877Z,101546.09
2023-07-17T04:10:31.576Z,101546.09
2023-07-17T04:12:58.110Z,101552.34
2023-07-17T04:15:24.667Z,101550.44
2023-07-17T04:17:51.232Z,101551.28
2023-07-17T04:20:17.776Z,101563.00
2023-07-17T04:22:44.360Z,101563.06
2023-07-17T04:25:10.944Z,101564.22
2023-07-17T04:27:37.786Z,101563.91
2023-07-17T04:30:05.705Z,101566.25
2023-07-17T04:32:32.313Z,101564.75
2023-07-17T04:34:58.963Z,101565.16
2023-07-17T04:37:25.478Z,101573.00
2023-07-17T04:39:52.079Z,101572.69
2023-07-17T04:42:18.800Z,101572.69
2023-07-17T04:44:45.440Z,101573.47
2023-07-17T04:47:12.923Z,101575.47
2023-07-17T04:49:39.498Z,101580.94
2023-07-17T04:52:06.250Z,101583.31
2023-07-17T04:54:32.789Z,101584.47
2023-07-17T04:56:59.314Z,101593.09
2023-07-17T04:59:25.891Z,101583.03
2023-07-17T05:01:52.443Z,101579.94
2023-07-17T05:04:19.376Z,101578.78
2023-07-17T05:06:45.846Z,101585.09
2023-07-17T05:09:12.401Z,101585.19
2023-07-17T05:11:38.935Z,101591.44
2023-07-17T05:14:05.421Z,101588.34
2023-07-17T05:16:31.977Z,101595.50
2023-07-17T05:18:58.906Z,101594.34
2023-07-17T05:21:26.449Z,101602.59
2023-07-17T05:23:53.204Z,101602.69
2023-07-17T05:26:21.937Z,101601.97
2023-07-17T05:28:50.311Z,101623.94
2023-07-17T05:31:17.295Z,101618.91
2023-07-17T05:33:44.441Z,101618.09
2023-07-17T05:36:11.020Z,101615.63
2023-07-17T05:38:37.734Z,101626.56
2023-07-17T05:41:04.319Z,101622.00
2023-07-17T05:43:32.239Z,101626.03
2023-07-17T05:45:59.050Z,101635.91
2023-07-17T05:48:25.645Z,101627.31
2023-07-17T05:50:52.147Z,101632.06
2023-07-17T05:53:18.662Z,101640.00
2023-07-17T05:55:45.250Z,101642.06
2023-07-17T05:58:11.746Z,101642.63
2023-07-17T06:00:38.292Z,101646.66
2023-07-17T06:03:04.925Z,101640.69
2023-07-17T06:05:31.619Z,101646.47
2023-07-17T06:07:58.809Z,101644.00
2023-07-17T06:10:25.348Z,101652.34
2023-07-17T06:12:51.859Z,101652.28
2023-07-17T06:15:18.590Z,101655.94
2023-07-17T06:17:45.227Z,101656.00
2023-07-17T06:20:11.817Z,101659.16
2023-07-17T06:22:39.015Z,101660.03
2023-07-17T06:25:06.358Z,101671.03
2023-07-17T06:27:33.562Z,101666.34
2023-07-17T06:30:00.245Z,101669.22
2023-07-17T06:32:27.640Z,101670.09
2023-07-17T06:34:54.409Z,101665.69
2023-07-17T06:37:20.939Z,101690.28
2023-07-17T06:39:47.442Z,101676.28
2023-07-17T06:42:14.043Z,101673.28
2023-07-17T06:44:40.715Z,101677.75
2023-07-17T06:47:14.180Z,101685.16
2023-07-17T06:49:47.434Z,101683.63
2023-07-17T06:52:14.000Z,101699.88
2023-07-17T06:54:57.459Z,101691.22
2023-07-17T06:57:27.059Z,101695.16
2023-07-17T06:59:53.578Z,101692.72
2023-07-17T07:02:20.081Z,101693.72
2023-07-17T07:04:46.588Z,101696.91
2023-07-17T07:07:13.096Z,101693.13
2023-07-17T07:09:39.581Z,101699.22
2023-07-17T07:12:06.491Z,101705.91
2023-07-17T07:14:33.043Z,101703.63
2023-07-17T07:16:59.588Z,101697.63
2023-07-17T07:19:26.093Z,101705.50
2023-07-17T07:21:52.568Z,101702.50
2023-07-17T07:24:19.534Z,101710.72
2023-07-17T07:26:46.052Z,101706.72
2023-07-17T07:29:12.576Z,101714.22
2023-07-17T07:31:39.108Z,101723.00
2023-07-17T07:34:05.662Z,101719.13
2023-07-17T07:36:32.204Z,101722.56
2023-07-17T07:38:58.824Z,101730.69
2023-07-17T07:41:25.380Z,101729.28
2023-07-17T07:43:51.910Z,101735.97
2023-07-17T07:46:18.775Z,101734.06
2023-07-17T07:48:45.539Z,101739.22
2023-07-17T07:51:12.079Z,101729.38
2023-07-17T07:53:42.904Z,101726.06
2023-07-17T07:56:10.065Z,101735.63
2023-07-17T07:58:36.646Z,101733.34
2023-07-17T08:01:03.658Z,101734.94
2023-07-17T08:03:30.643Z,101737.16
2023-07-17T08:05:57.299Z,101741.97
2023-07-17T08:08:23.889Z,101744.63
2023-07-17T08:10:54.362Z,101748.19
2023-07-17T08:13:21.111Z,101754.44
2023-07-17T08:15:48.693Z,101745.63
2023-07-17T08:18:15.671Z,101762.00
2023-07-17T08:20:42.521Z,101763.38
2023-07-17T08:23:09.429Z,101760.34
2023-07-17T08:25:36.057Z,101762.88
2023-07-17T08:28:02.643Z,101756.34
2023-07-17T08:30:29.260Z,101755.91
2023-07-17T08:32:55.796Z,101771.84
2023-07-17T08:35:22.347Z,101771.34
2023-07-17T08:37:48.862Z,101756.16
2023-07-17T08:40:16.665Z,101769.97
2023-07-17T08:42:47.027Z,101761.03
2023-07-17T08:45:15.141Z,101759.22
2023-07-17T08:47:41.934Z,101758.06
2023-07-17T08:50:09.672Z,101756.69
2023-07-17T08:52:36.337Z,101760.84
2023-07-17T08:55:03.075Z,101749.81
2023-07-17T08:57:32.333Z,101756.63
2023-07-17T08:59:59.029Z,101753.44
2023-07-17T09:02:26.465Z,101751.81
2023-07-17T09:04:53.088Z,101766.22
2023-07-17T09:07:19.611Z,101764.22
2023-07-17T09:09:46.119Z,101754.53
2023-07-17T09:12:13.343Z,101761.88
2023-07-17T09:14:40.657Z,101764.97
2023-07-17T09:17:11.257Z,101760.81
2023-07-17T09:19:38.329Z,101754.41
2023-07-17T09:22:07.369Z,101766.47
2023-07-17T09:24:35.244Z,101765.13
2023-07-17T09:27:04.967Z,101759.84
2023-07-17T09:29:31.499Z,101776.22
2023-07-17T09:32:14.109Z,101774.19
2023-07-17T09:34:40.583Z,101780.81
2023-07-17T09:37:11.004Z,101776.81
2023-07-17T09:39:39.360Z,101779.19
2023-07-17T09:42:21.897Z,101788.91
2023-07-17T09:44:50.276Z,101795.56
2023-07-17T09:47:16.872Z,101810.91
2023-07-17T09:49:44.949Z,101819.97
2023-07-17T09:52:11.816Z,101805.31
2023-07-17T09:54:40.861Z,101804.75
2023-07-17T09:57:09.384Z,101810.53
2023-07-17T09:59:42.226Z,101827.69
2023-07-17T10:02:16.376Z,101830.41
2023-07-17T10:04:50.446Z,101844.28
2023-07-17T10:07:19.492Z,101854.56
2023-07-17T10:09:49.562Z,101857.63
2023-07-17T10:12:19.685Z,101848.69
2023-07-17T10:14:49.054Z,101827.91
2023-07-17T10:17:31.502Z,101824.19
2023-07-17T10:20:00.577Z,101824.72
2023-07-17T10:22:35.775Z,101825.44
2023-07-17T10:25:11.738Z,101824.44
2023-07-17T10:27:44.716Z,101830.06
2023-07-17T10:30:31.207Z,101820.41
2023-07-17T10:33:13.752Z,101821.19
2023-07-17T10:35:50.546Z,101822.41
2023-07-17T10:38:19.338Z,101824.13
2023-07-17T10:40:46.586Z,101821.06
2023-07-17T10:43:18.498Z,101826.25
2023-07-17T10:45:48.234Z,101825.31
2023-07-17T10:48:16.320Z,101816.81
2023-07-17T10:50:51.047Z,101818.09
2023-07-17T10:53:17.704Z,101814.03
2023-07-17T10:55:45.020Z,101820.66
2023-07-17T10:58:11.574Z,101810.22
2023-07-17T11:00:41.416Z,101817.88
2023-07-17T11:03:08.008Z,101819.66
2023-07-17T11:05:41.582Z,101829.72
2023-07-17T11:08:09.152Z,101836.78
2023-07-17T11:10:36.663Z,101844.91
2023-07-17T11:13:04.577Z,101834.59
2023-07-17T11:15:35.088Z,101832.41
2023-07-17T11:18:04.043Z,101842.34
2023-07-17T11:20:31.420Z,101850.56
2023-07-17T11:22:58.848Z,101838.41
2023-07-17T11:25:31.307Z,101841.50
2023-07-17T11:28:00.825Z,101836.03
2023-07-17T11:30:28.714Z,101828.34
2023-07-17T11:33:09.151Z,101832.47
2023-07-17T11:35:43.511Z,101832.22
2023-07-17T11:38:19.768Z,101828.56
2023-07-17T11:40:54.481Z,101829.84
2023-07-17T11:43:26.126Z,101826.06
2023-07-17T11:45:55.769Z,101828.59
2023-07-17T11:48:23.868Z,101828.41
2023-07-17T11:50:50.413Z,101824.69
2023-07-17T11:53:18.348Z,101836.63
2023-07-17T11:55:45.993Z,101849.38
2023-07-17T11:58:15.459Z,101836.59
2023-07-17T12:00:45.956Z,101843.00
2023-07-17T12:03:12.549Z,101833.63
2023-07-17T12:05:39.981Z,101829.53
2023-07-17T12:08:07.103Z,101825.84
2023-07-17T12:10:34.548Z,101832.13
2023-07-17T12:13:01.764Z,101837.03
2023-07-17T12:15:28.602Z,101827.47
2023-07-17T12:17:55.804Z,101828.88
2023-07-17T12:20:23.435Z,101818.63
2023-07-17T12:22:51.635Z,101818.56
2023-07-17T12:25:18.671Z,101821.38
2023-07-17T12:27:46.131Z,101816.25
2023-07-17T12:30:13.236Z,101822.41
2023-07-17T12:32:40.076Z,101830.75
2023-07-17T12:35:11.002Z,101831.66
2023-07-17T12:37:37.548Z,101833.41
2023-07-17T12:40:04.651Z,101832.72
2023-07-17T12:42:31.268Z,101830.88
2023-07-17T12:44:57.826Z,101837.34
2023-07-17T12:47:24.400Z,101852.03
2023-07-17T12:49:51.258Z,101846.94
2023-07-17T12:52:17.807Z,101853.19
2023-07-17T12:54:44.325Z,101849.66
2023-07-17T12:57:15.612Z,101848.94
2023-07-17T12:59:43.107Z,101859.31
2023-07-17T13:02:10.444Z,101860.69
2023-07-17T13:04:37.040Z,101855.16
2023-07-17T13:07:04.256Z,101863.84
2023-07-17T13:09:30.787Z,101864.38
2023-07-17T13:11:57.419Z,101874.25
2023-07-17T13:14:23.975Z,101875.19
2023-07-17T13:16:50.458Z,101874.28
2023-07-17T13:19:18.954Z,101859.66
2023-07-17T13:21:45.537Z,101869.34
2023-07-17T13:24:12.632Z,101868.84
2023-07-17T13:26:39.230Z,101869.47
2023-07-17T13:29:08.588Z,101872.84
2023-07-17T13:31:35.788Z,101870.84
2023-07-17T13:34:02.431Z,101859.16
2023-07-17T13:36:29.058Z,101853.47
2023-07-17T13:38:55.641Z,101869.91
2023-07-17T13:41:42.172Z,101860.69
2023-07-17T13:44:08.860Z,101860.72
2023-07-17T13:46:35.705Z,101862.00
2023-07-17T13:49:02.753Z,101855.50
2023-07-17T13:51:29.418Z,101860.41
2023-07-17T13:53:56.080Z,101862.53
2023-07-17T13:58:53.773Z,101864.94
2023-07-17T14:01:20.800Z,101867.03
2023-07-17T14:03:47.838Z,101872.06
2023-07-17T14:06:14.722Z,101875.59
2023-07-17T14:08:42.678Z,101883.31
2023-07-17T14:11:09.481Z,101876.50
2023-07-17T14:13:36.094Z,101877.22
2023-07-17T14:16:02.730Z,101873.31
2023-07-17T14:18:29.278Z,101874.13
2023-07-17T14:20:58.048Z,101879.59
2023-07-17T14:23:24.612Z,101874.50
2023-07-17T14:25:51.192Z,101876.81
2023-07-17T14:28:17.701Z,101884.69
2023-07-17T14:30:44.324Z,101880.72
2023-07-17T14:33:10.906Z,101886.97
2023-07-17T14:35:37.519Z,101891.22
2023-07-17T14:38:04.066Z,101888.84
2023-07-17T14:40:30.742Z,101876.25
2023-07-17T14:42:57.252Z,101887.97
2023-07-17T14:45:23.791Z,101882.44
2023-07-17T14:47:50.418Z,101874.97
2023-07-17T14:50:20.373Z,101885.97
2023-07-17T14:52:47.884Z,101886.00
2023-07-17T14:55:14.433Z,101882.53
2023-07-17T14:57:41.074Z,101882.88
2023-07-17T15:00:08.535Z,101881.31
2023-07-17T15:02:35.117Z,101869.16
2023-07-17T15:05:01.620Z,101865.72
2023-07-17T15:07:28.190Z,101864.28
2023-07-17T15:09:54.727Z,101867.56
2023-07-17T15:12:21.413Z,101872.44
2023-07-17T15:14:47.920Z,101881.22
2023-07-17T15:17:14.450Z,101880.97
2023-07-17T15:19:42.272Z,101881.13
2023-07-17T15:22:09.547Z,101887.50
2023-07-17T15:24:36.185Z,101887.50
2023-07-17T15:27:02.950Z,101886.69
2023-07-17T15:29:29.554Z,101884.31
2023-07-17T15:31:56.116Z,101880.28
2023-07-17T15:34:22.651Z,101879.25
2023-07-17T15:36:50.434Z,101879.41
2023-07-17T15:39:17.048Z,101878.03
2023-07-17T15:41:46.548Z,101879.28
2023-07-17T15:44:13.295Z,101880.81
2023-07-17T15:46:40.040Z,101894.22
2023-07-17T15:49:06.615Z,101891.88
2023-07-17T15:51:33.183Z,101906.28
2023-07-17T15:53:59.689Z,101886.03
2023-07-17T15:56:26.606Z,101898.69
2023-07-17T15:58:53.192Z,101892.00
2023-07-17T16:01:19.767Z,101900.31
2023-07-17T16:03:46.394Z,101894.03
2023-07-17T16:06:13.864Z,101898.41
2023-07-17T16:08:40.381Z,101887.38
2023-07-17T16:11:07.501Z,101899.53
2023-07-17T16:13:34.060Z,101897.19
2023-07-17T16:16:00.585Z,101897.63
2023-07-17T16:18:27.078Z,101899.59
2023-07-17T16:20:53.753Z,101891.31
2023-07-17T16:23:20.301Z,101892.03
2023-07-17T16:25:46.876Z,101886.53
2023-07-17T16:28:13.456Z,101893.69
2023-07-17T16:30:40.077Z,101892.91
2023-07-17T16:33:06.596Z,101890.50
2023-07-17T16:35:33.243Z,101896.84
2023-07-17T16:37:59.724Z,101888.66
2023-07-17T16:40:26.322Z,101901.28
2023-07-17T16:42:52.874Z,101887.22
2023-07-17T16:45:20.037Z,101888.38
2023-07-17T16:47:46.627Z,101902.25
2023-07-17T16:50:13.298Z,101897.38
2023-07-17T16:52:39.864Z,101899.75
2023-07-17T16:55:06.816Z,101896.88
2023-07-17T16:57:36.379Z,101904.22
2023-07-17T17:00:05.067Z,101898.22
2023-07-17T17:02:32.045Z,101900.16
2023-07-17T17:04:58.788Z,101906.91
2023-07-17T17:07:25.344Z,101911.56
2023-07-17T17:09:52.819Z,101923.25
2023-07-17T17:12:19.426Z,101914.50
2023-07-17T17:14:47.925Z,101908.97
2023-07-17T17:17:15.966Z,101912.13
2023-07-17T17:19:42.726Z,101912.50
2023-07-17T17:22:11.351Z,101914.41
2023-07-17T17:24:39.716Z,101934.41
2023-07-17T17:27:06.455Z,101923.38
2023-07-17T17:29:36.258Z,101927.72
2023-07-17T17:32:06.359Z,101932.75
2023-07-17T17:34:33.123Z,101934.63
2023-07-17T17:36:59.812Z,101920.78
2023-07-17T17:39:26.837Z,101936.50
2023-07-17T17:41:53.432Z,101928.97
2023-07-17T17:44:19.947Z,101939.91
2023-07-17T17:46:46.558Z,101934.25
2023-07-17T17:49:13.493Z,101934.56
2023-07-17T17:51:40.035Z,101940.09
2023-07-17T17:54:06.905Z,101938.97
2023-07-17T17:56:33.627Z,101946.84
2023-07-17T17:59:00.240Z,101942.47
2023-07-17T18:01:26.870Z,101944.41
2023-07-17T18:03:56.413Z,101944.78
2023-07-17T18:06:23.156Z,101940.84
2023-07-17T18:08:49.698Z,101961.22
2023-07-17T18:11:17.905Z,101953.69
2023-07-17T18:13:45.914Z,101965.34
2023-07-17T18:16:12.564Z,101960.22
2023-07-17T18:18:39.302Z,101966.50
2023-07-17T18:21:09.779Z,101971.56
2023-07-17T18:23:36.361Z,101960.53
2023-07-17T18:26:02.910Z,101960.06
2023-07-17T18:28:29.426Z,101969.06
2023-07-17T18:30:55.999Z,101962.31
2023-07-17T18:33:22.530Z,101969.78
2023-07-17T18:35:49.892Z,101979.22
2023-07-17T18:38:17.437Z,101969.69
2023-07-17T18:40:44.696Z,101978.81
2023-07-17T18:43:11.545Z,101975.47
2023-07-17T18:45:38.413Z,101979.09
2023-07-17T18:48:05.200Z,101988.78
2023-07-17T18:50:31.721Z,101985.88
2023-07-17T18:53:00.202Z,101983.47
2023-07-17T18:55:27.091Z,101991.22
2023-07-17T18:57:53.820Z,101992.31
2023-07-17T19:00:23.462Z,101990.97
2023-07-17T19:02:50.635Z,102000.34
2023-07-17T19:05:19.118Z,102001.41
2023-07-17T19:07:46.925Z,101994.59
2023-07-17T19:10:13.530Z,102002.34
2023-07-17T19:12:40.206Z,102003.81
2023-07-17T19:15:09.393Z,102008.38
2023-07-17T19:17:37.320Z,102008.31
2023-07-17T19:20:07.438Z,102011.00
2023-07-17T19:22:34.458Z,102012.53
2023-07-17T19:25:01.140Z,102013.69
2023-07-17T19:27:27.658Z,102014.06
2023-07-17T19:29:54.182Z,102008.44
2023-07-17T19:32:25.525Z,102011.81
2023-07-17T19:34:52.625Z,102014.34
2023-07-17T19:37:20.324Z,102020.78
2023-07-17T19:39:46.972Z,102015.53
2023-07-17T19:42:13.478Z,102025.41
2023-07-17T19:44:39.969Z,102030.41
2023-07-17T19:47:06.689Z,102039.88
2023-07-17T19:49:33.985Z,102039.38
2023-07-17T19:52:00.484Z,102041.63
2023-07-17T19:54:27.100Z,102042.34
2023-07-17T19:56:53.664Z,102057.97
2023-07-17T19:59:20.172Z,102061.09
2023-07-17T20:01:46.672Z,102052.06
2023-07-17T20:04:15.517Z,102062.81
2023-07-17T20:06:42.652Z,102063.66
2023-07-17T20:09:09.473Z,102064.75
2023-07-17T20:11:36.294Z,102059.53
2023-07-17T20:14:02.924Z,102064.50
2023-07-17T20:16:30.209Z,102071.84
2023-07-17T20:18:56.821Z,102074.94
2023-07-17T20:21:26.003Z,102073.72
2023-07-17T20:23:52.620Z,102079.84
2023-07-17T20:26:21.534Z,102069.63
2023-07-17T20:28:49.038Z,102073.41
2023-07-17T20:31:16.168Z,102083.94
2023-07-17T20:33:44.762Z,102080.69
2023-07-17T20:36:11.394Z,102080.16
2023-07-17T20:38:37.999Z,102086.06
2023-07-17T20:41:04.556Z,102084.22
2023-07-17T20:43:31.118Z,102084.13
2023-07-17T20:45:57.745Z,102085.03
2023-07-17T20:48:24.598Z,102085.88
2023-07-17T20:51:13.151Z,102090.06
2023-07-17T20:53:40.614Z,102087.59
2023-07-17T20:56:08.107Z,102082.03
2023-07-17T20:58:35.304Z,102085.91
2023-07-17T21:01:08.363Z,102086.88
2023-07-17T21:03:35.993Z,102084.75
2023-07-17T21:06:04.292Z,102101.41
2023-07-17T21:08:32.063Z,102092.69
2023-07-17T21:11:01.841Z,102093.38
2023-07-17T21:13:31.255Z,102087.09
2023-07-17T21:16:00.040Z,102083.22
2023-07-17T21:18:26.605Z,102089.16
2023-07-17T21:20:55.108Z,102094.97
2023-07-17T21:23:22.088Z,102091.97
2023-07-17T21:25:50.173Z,102095.06
2023-07-17T21:28:17.677Z,102097.00
2023-07-17T21:30:47.543Z,102095.44
2023-07-17T21:33:14.462Z,102086.31
2023-07-17T21:35:41.341Z,102092.22
2023-07-17T21:38:08.036Z,102093.84
2023-07-17T21:40:34.547Z,102099.63
2023-07-17T21:43:01.137Z,102086.59
2023-07-17T21:45:27.875Z,102088.53
2023-07-17T21:47:54.380Z,102091.16
2023-07-17T21:50:20.993Z,102101.03
2023-07-17T21:52:47.541Z,102107.44
2023-07-17T21:55:14.777Z,102117.03
2023-07-17T21:57:42.306Z,102113.72
2023-07-17T22:00:14.077Z,102111.78
2023-07-17T22:02:42.645Z,102115.44
2023-07-17T22:05:11.496Z,102109.28
2023-07-17T22:07:37.990Z,102117.50
2023-07-17T22:10:05.049Z,102109.06
2023-07-17T22:12:31.586Z,102108.84
2023-07-17T22:14:58.096Z,102107.94
2023-07-17T22:17:25.018Z,102098.50
2023-07-17T22:19:52.508Z,102105.09
2023-07-17T22:22:21.093Z,102113.31
2023-07-17T22:24:49.449Z,102100.09
2023-07-17T22:27:16.132Z,102101.78
2023-07-17T22:29:42.741Z,102110.44
2023-07-17T22:32:09.276Z,102102.03
2023-07-17T22:34:35.783Z,102119.47
2023-07-17T22:37:04.127Z,102116.88
2023-07-17T22:39:31.242Z,102117.25
2023-07-17T22:41:57.859Z,102114.75
2023-07-17T22:44:24.759Z,102115.56
2023-07-17T22:46:51.351Z,102110.19
2023-07-17T22:49:18.000Z,102121.25
2023-07-17T22:51:44.534Z,102118.28
2023-07-17T22:54:11.007Z,102122.88
2023-07-17T22:56:37.650Z,102118.28
2023-07-17T22:59:04.564Z,102120.56
2023-07-17T23:01:31.158Z,102119.69
2023-07-17T23:03:57.742Z,102122.16
2023-07-17T23:06:24.346Z,102122.41
2023-07-17T23:08:54.126Z,102116.81
2023-07-17T23:11:21.290Z,102115.81
2023-07-17T23:13:48.146Z,102112.72
2023-07-17T23:16:14.848Z,102116.69
2023-07-17T23:18:41.448Z,102112.47
2023-07-17T23:21:09.042Z,102111.38
2023-07-17T23:23:35.879Z,102115.69
2023-07-17T23:26:02.592Z,102111.59
2023-07-17T23:28:29.364Z,102103.84
2023-07-17T23:30:56.504Z,102100.44
2023-07-17T23:33:23.194Z,102105.66
2023-07-17T23:35:49.674Z,102107.81
2023-07-17T23:38:16.936Z,102103.22
2023-07-17T23:40:44.888Z,102109.16
2023-07-17T23:43:13.247Z,102106.09
2023-07-17T23:45:41.508Z,102106.53
2023-07-17T23:48:08.824Z,102111.19
2023-07-17T23:50:36.979Z,102110.41
2023-07-17T23:53:03.921Z,102105.28
2023-07-17T23:55:32.298Z,102100.84
2023-07-17T23:58:04.998Z,102101.91
